Bodega, California
Current Conditions -  °F | °C
As of 4:53 PM on Monday 24 Nov 2014 (Local Time) from KSTS Reporting Station
Clear Clear  
Wind Chill: 64°   Ceiling: Unl
Heat Index: 64°   Visibility: 10mi
Dew Point: 45°   Wind: 3mph
Humidity: 50%   Direction: 220°SW
Pressure: 30.33"   Gusts: NA
Location:  38.35°N, 122.97°W
Report Text: KSTS 250053Z 22003KT 10SM CLR 18/07 A3033 RMK AO2 SLP264 T01780072
Loading
Personal Weather Stations






























Interactive Weather Map New forecast layout! Learn more

10-Day Weather Forecast

Advertisements
Track Severe Weather on mobile